Terminal Aerodrome Forecast
Issued by NWS Atlanta, GA

Home | Current Version | Previous Version | Text Only | Print | Product List | Glossary On
Versions: 1 2 3 4 5 6 7 8 9 10 11 12 13 14 15 16 17 18 19 20
000
FTUS42 KFFC 141100
TAFCSG
TAF
KCSG 141133Z 1412/1512 VRB03KT P6SM SKC
     FM141400 25004KT P6SM SCT040
     FM141600 24008KT P6SM VCSH BKN050 PROB30 1421/1501 4SM TSRA
      BKN025CB
     FM150200 24005KT P6SM SCT040 BKN080
     FM151100 27007KT P6SM BKN035 OVC060=

USA.gov is the U.S. government's official web portal to all federal, state and local government web resources and services.